This is the latest recevied weather packets stored in our database for station/object VY2CRA-4. If no packets are shown the sender has not sent any weather packets the latest 10 day(s).
| Time | Temp. | Humidity | Pressure | Rain* | Wind** | Luminosity | Snow |
|---|---|---|---|---|---|---|---|
| 1777833904 | 11.67° C | 53% | 995.8 hPa | 0 mm | - | - | - |
| 1777832704 | 12.22° C | 51% | 996.2 hPa | 0 mm | - | - | - |
| 1777831504 | 12.78° C | 48% | 997.2 hPa | 0 mm | - | - | - |
| 1777830303 | 13.33° C | 46% | 998.6 hPa | 0 mm | - | - | - |
| 1777829101 | 13.89° C | 45% | 1000.2 hPa | 0 mm | - | - | - |
| 1777827900 | 14.44° C | 44% | 1001.1 hPa | 0 mm | - | - | - |
| 1777826699 | 15° C | 42% | 1002.1 hPa | 0 mm | - | - | - |
| 1777825499 | 15.56° C | 39% | 1001.9 hPa | 0 mm | - | - | - |
| 1777824300 | 15.56° C | 37% | 1002.8 hPa | 0 mm | - | - | - |
| 1777823096 | 16.11° C | 35% | 1002.8 hPa | 0 mm | - | - | - |
| 1777821895 | 17.22° C | 32% | 1003.9 hPa | 0 mm | - | - | - |
| 1777820695 | 17.78° C | 31% | 1004.3 hPa | 0 mm | - | - | - |
| 1777819493 | 17.78° C | 32% | 1004.7 hPa | 0 mm | - | - | - |
| 1777818292 | 17.22° C | 33% | 1005.5 hPa | 0 mm | - | - | - |
| 1777817092 | 17.22° C | 33% | 1006.2 hPa | 0 mm | - | - | - |
| 1777815891 | 17.22° C | 34% | 1005.9 hPa | 0 mm | - | - | - |
| 1777814690 | 17.22° C | 35% | 1005.5 hPa | 0 mm | - | - | - |
| 1777813489 | 16.67° C | 36% | 1005.3 hPa | 0 mm | - | - | - |
| 1777812289 | 16.67° C | 38% | 1005.2 hPa | 0 mm | - | - | - |
| 1777811087 | 15.56° C | 40% | 1005.6 hPa | 0 mm | - | - | - |
| 1777809886 | 14.44° C | 43% | 1006.1 hPa | 0 mm | - | - | - |
| 1777808685 | 13.89° C | 44% | 1006.5 hPa | 0 mm | - | - | - |
| 1777807484 | 13.89° C | 44% | 1007 hPa | 0 mm | - | - | - |
| 1777806285 | 13.33° C | 45% | 1007.1 hPa | 0 mm | - | - | - |
| 1777805082 | 13.33° C | 45% | 1007.2 hPa | 0 mm | - | - | - |
* Rain since midnight (hover to see other rain measurements)
** Current wind speed in m/s (hover to see current wind gust speed)